createdAt,value
2023-05-19T00:01:00.599Z,18.05
2023-05-19T00:03:28.126Z,18.06
2023-05-19T00:05:59.056Z,18.07
2023-05-19T00:08:29.182Z,18.09
2023-05-19T00:10:57.088Z,18.07
2023-05-19T00:13:24.659Z,18.03
2023-05-19T00:15:53.789Z,18.09
2023-05-19T00:18:21.200Z,18.09
2023-05-19T00:20:48.833Z,18.09
2023-05-19T00:23:15.857Z,18.13
2023-05-19T00:25:43.489Z,18.16
2023-05-19T00:28:10.525Z,18.20
2023-05-19T00:30:37.949Z,18.23
2023-05-19T00:33:05.097Z,18.24
2023-05-19T00:35:32.657Z,18.24
2023-05-19T00:37:59.704Z,18.22
2023-05-19T00:40:28.444Z,18.23
2023-05-19T00:42:55.565Z,18.21
2023-05-19T00:45:23.079Z,18.20
2023-05-19T00:47:50.194Z,18.18
2023-05-19T00:50:17.702Z,18.17
2023-05-19T00:52:44.760Z,18.15
2023-05-19T00:55:14.311Z,18.13
2023-05-19T00:57:42.961Z,18.09
2023-05-19T01:00:11.670Z,18.05
2023-05-19T01:02:40.154Z,18.05
2023-05-19T01:05:08.988Z,18.04
2023-05-19T01:07:36.893Z,18.04
2023-05-19T01:10:04.930Z,18.03
2023-05-19T01:12:31.942Z,17.99
2023-05-19T01:14:59.480Z,17.99
2023-05-19T01:17:40.573Z,17.97
2023-05-19T01:20:13.681Z,17.98
2023-05-19T01:22:59.509Z,17.96
2023-05-19T01:25:42.870Z,17.95
2023-05-19T01:28:32.920Z,17.91
2023-05-19T01:31:01.519Z,17.89
2023-05-19T01:33:31.180Z,17.89
2023-05-19T01:36:03.165Z,17.87
2023-05-19T01:38:30.650Z,17.86
2023-05-19T01:40:58.860Z,17.83
2023-05-19T01:43:27.552Z,17.77
2023-05-19T01:45:55.798Z,17.73
2023-05-19T01:48:23.435Z,17.64
2023-05-19T01:50:51.459Z,17.58
2023-05-19T01:53:18.651Z,17.54
2023-05-19T01:55:49.762Z,17.48
2023-05-19T01:58:46.399Z,17.43
2023-05-19T02:01:27.217Z,17.39
2023-05-19T02:04:31.731Z,17.37
2023-05-19T02:07:10.014Z,17.35
2023-05-19T02:09:52.504Z,17.34
2023-05-19T02:12:25.073Z,17.32
2023-05-19T02:15:05.238Z,17.31
2023-05-19T02:17:36.466Z,17.28
2023-05-19T02:20:05.894Z,17.27
2023-05-19T02:22:33.515Z,17.23
2023-05-19T02:25:00.585Z,17.19
2023-05-19T02:27:28.266Z,17.14
2023-05-19T02:29:55.527Z,17.08
2023-05-19T02:32:22.967Z,17.05
2023-05-19T02:34:50.190Z,17.06
2023-05-19T02:37:17.846Z,17.04
2023-05-19T02:39:45.276Z,17.02
2023-05-19T02:42:14.791Z,17.03
2023-05-19T02:44:41.858Z,17.03
2023-05-19T02:47:10.798Z,17.04
2023-05-19T02:49:38.073Z,17.06
2023-05-19T02:52:07.044Z,17.09
2023-05-19T02:54:34.492Z,17.14
2023-05-19T02:57:02.235Z,17.18
2023-05-19T02:59:29.627Z,17.27
2023-05-19T03:02:01.967Z,17.36
2023-05-19T03:04:30.142Z,17.44
2023-05-19T03:06:57.968Z,17.55
2023-05-19T03:09:26.193Z,17.63
2023-05-19T03:11:53.817Z,17.75
2023-05-19T03:14:24.385Z,17.86
2023-05-19T03:16:53.606Z,17.98
2023-05-19T03:19:21.744Z,18.05
2023-05-19T03:21:49.751Z,18.13
2023-05-19T03:24:16.961Z,18.17
2023-05-19T03:26:46.097Z,18.30
2023-05-19T03:29:14.515Z,18.46
2023-05-19T03:31:43.084Z,18.52
2023-05-19T03:34:10.508Z,18.74
2023-05-19T03:36:40.014Z,18.91
2023-05-19T03:39:07.257Z,19.03
2023-05-19T03:41:34.577Z,18.99
2023-05-19T03:44:01.723Z,18.89
2023-05-19T03:46:30.547Z,18.82
2023-05-19T03:48:59.280Z,18.79
2023-05-19T03:54:49.152Z,19.10
2023-05-19T03:57:16.672Z,19.27
2023-05-19T03:59:44.197Z,19.33
2023-05-19T04:05:29.234Z,19.03
2023-05-19T04:07:56.790Z,18.89
2023-05-19T04:10:26.832Z,18.69
2023-05-19T04:13:11.703Z,18.56
2023-05-19T04:15:39.006Z,18.39
2023-05-19T04:18:06.502Z,18.27
2023-05-19T04:20:34.070Z,18.26
2023-05-19T04:23:01.908Z,18.52
2023-05-19T04:25:29.104Z,18.86
2023-05-19T04:27:57.999Z,19.30
2023-05-19T04:30:25.370Z,19.50
2023-05-19T04:35:51.819Z,19.89
2023-05-19T04:38:24.294Z,20.12
2023-05-19T04:40:52.149Z,20.27
2023-05-19T04:43:19.828Z,20.23
2023-05-19T04:48:31.258Z,20.01
2023-05-19T04:51:08.629Z,19.98
2023-05-19T04:53:37.204Z,20.08
2023-05-19T04:56:05.246Z,20.14
2023-05-19T04:58:33.436Z,20.14
2023-05-19T05:01:01.739Z,20.12
2023-05-19T05:03:34.672Z,20.01
2023-05-19T05:06:01.932Z,19.93
2023-05-19T05:08:30.366Z,19.89
2023-05-19T05:10:58.226Z,19.88
2023-05-19T05:13:26.097Z,19.92
2023-05-19T05:15:54.591Z,20.10
2023-05-19T05:18:22.531Z,20.18
2023-05-19T05:20:51.166Z,20.09
2023-05-19T05:23:19.552Z,20.03
2023-05-19T05:25:47.833Z,20.07
2023-05-19T05:28:16.860Z,20.32
2023-05-19T05:30:45.088Z,20.72
2023-05-19T05:33:12.948Z,21.20
2023-05-19T05:35:41.096Z,21.57
2023-05-19T05:38:11.712Z,21.71
2023-05-19T05:40:41.973Z,21.68
2023-05-19T05:43:10.482Z,21.82
2023-05-19T05:45:38.129Z,21.85
2023-05-19T05:48:06.119Z,21.86
2023-05-19T05:50:34.192Z,21.81
2023-05-19T05:53:03.094Z,21.48
2023-05-19T05:55:31.078Z,21.30
2023-05-19T05:57:59.600Z,21.27
2023-05-19T06:00:28.676Z,21.15
2023-05-19T06:02:57.613Z,20.93
2023-05-19T06:05:25.787Z,20.83
2023-05-19T06:07:54.294Z,20.82
2023-05-19T06:10:22.344Z,20.79
2023-05-19T06:12:49.998Z,20.67
2023-05-19T06:15:18.545Z,20.72
2023-05-19T06:17:52.779Z,20.74
2023-05-19T06:20:20.306Z,20.73
2023-05-19T06:22:50.294Z,20.76
2023-05-19T06:28:00.048Z,20.73
2023-05-19T06:30:27.226Z,20.79
2023-05-19T06:32:57.833Z,20.80
2023-05-19T06:35:25.214Z,20.77
2023-05-19T06:37:57.477Z,20.76
2023-05-19T06:40:24.940Z,20.77
2023-05-19T06:42:55.026Z,20.81
2023-05-19T06:45:24.030Z,20.86
2023-05-19T06:48:03.836Z,20.91
2023-05-19T06:50:31.402Z,20.93
2023-05-19T06:52:59.339Z,20.99
2023-05-19T06:55:26.458Z,21.03
2023-05-19T06:57:54.013Z,21.04
2023-05-19T07:00:23.095Z,21.11
2023-05-19T07:02:51.792Z,21.14
2023-05-19T07:05:19.205Z,21.23
2023-05-19T07:07:46.760Z,21.45
2023-05-19T07:10:13.903Z,21.63
2023-05-19T07:15:27.028Z,21.90
2023-05-19T07:18:03.144Z,22.00
2023-05-19T07:20:30.857Z,22.12
2023-05-19T07:22:58.639Z,22.19
2023-05-19T07:28:09.465Z,22.47
2023-05-19T07:30:36.576Z,22.53
2023-05-19T07:33:04.118Z,22.60
2023-05-19T07:36:40.606Z,22.66
2023-05-19T07:42:07.825Z,22.89
2023-05-19T07:44:35.305Z,22.90
2023-05-19T07:47:02.429Z,23.00
2023-05-19T07:49:30.242Z,23.23
2023-05-19T07:51:57.912Z,23.42
2023-05-19T07:54:25.469Z,23.53
2023-05-19T07:56:53.264Z,23.55
2023-05-19T07:59:20.775Z,23.66
2023-05-19T08:01:48.098Z,23.76
2023-05-19T08:04:15.848Z,23.78
2023-05-19T08:06:44.579Z,23.83
2023-05-19T08:09:12.226Z,23.98
2023-05-19T08:11:39.554Z,24.21
2023-05-19T08:14:07.081Z,24.24
2023-05-19T08:16:34.123Z,24.39
2023-05-19T08:19:04.278Z,24.53
2023-05-19T08:21:34.823Z,24.96
2023-05-19T08:24:03.377Z,25.95
2023-05-19T08:26:30.541Z,26.91
2023-05-19T08:28:58.140Z,27.68
2023-05-19T08:31:25.563Z,27.93
2023-05-19T08:33:53.437Z,28.00
2023-05-19T08:36:22.151Z,28.16
2023-05-19T08:38:49.667Z,28.53
2023-05-19T08:41:17.356Z,28.64
2023-05-19T08:43:45.812Z,29.24
2023-05-19T08:46:15.174Z,29.59
2023-05-19T08:48:45.546Z,29.57
2023-05-19T08:51:15.779Z,29.70
2023-05-19T08:53:51.130Z,30.38
2023-05-19T08:56:26.578Z,31.19
2023-05-19T08:58:56.697Z,30.77
2023-05-19T09:01:24.297Z,30.92
2023-05-19T09:03:52.523Z,31.20
2023-05-19T09:06:19.667Z,30.98
2023-05-19T09:08:48.340Z,30.71
2023-05-19T09:11:20.425Z,30.75
2023-05-19T09:13:48.902Z,31.46
2023-05-19T09:16:17.660Z,31.51
2023-05-19T09:18:56.639Z,31.61
2023-05-19T09:21:33.565Z,31.35
2023-05-19T09:24:07.427Z,31.08
2023-05-19T09:26:38.745Z,31.94
2023-05-19T09:29:16.712Z,32.66
2023-05-19T09:31:51.228Z,32.63
2023-05-19T09:34:19.678Z,31.66
2023-05-19T09:36:53.502Z,30.33
2023-05-19T09:39:24.949Z,29.16
2023-05-19T09:41:58.587Z,28.47
2023-05-19T09:44:50.992Z,28.03
2023-05-19T09:47:18.298Z,27.24
2023-05-19T09:49:49.241Z,26.98
2023-05-19T09:52:18.406Z,27.96
2023-05-19T09:54:46.102Z,29.58
2023-05-19T09:57:13.779Z,30.30
2023-05-19T09:59:41.452Z,30.75
2023-05-19T10:02:16.849Z,30.89
2023-05-19T10:04:48.760Z,30.18
2023-05-19T10:07:17.761Z,29.49
2023-05-19T10:09:46.270Z,29.51
2023-05-19T10:12:13.479Z,30.03
2023-05-19T10:14:41.503Z,29.37
2023-05-19T10:17:09.954Z,28.74
2023-05-19T10:19:38.822Z,28.62
2023-05-19T10:22:07.183Z,29.37
2023-05-19T10:24:35.233Z,29.04
2023-05-19T10:27:12.799Z,28.83
2023-05-19T10:29:46.097Z,28.09
2023-05-19T10:32:22.297Z,27.54
2023-05-19T10:34:59.421Z,27.21
2023-05-19T10:40:26.824Z,26.56
2023-05-19T10:43:25.438Z,26.54
2023-05-19T10:45:55.012Z,26.94
2023-05-19T10:48:23.867Z,27.11
2023-05-19T10:50:56.773Z,27.03
2023-05-19T10:53:51.213Z,26.94
2023-05-19T10:57:03.032Z,26.84
2023-05-19T10:59:32.900Z,26.90
2023-05-19T11:02:10.144Z,26.69
2023-05-19T11:04:54.483Z,26.58
2023-05-19T11:07:22.537Z,26.54
2023-05-19T11:09:52.789Z,26.59
2023-05-19T11:12:26.187Z,26.64
2023-05-19T11:14:54.894Z,26.73
2023-05-19T11:17:25.423Z,26.96
2023-05-19T11:19:57.057Z,27.81
2023-05-19T11:22:26.641Z,27.67
2023-05-19T11:24:57.507Z,27.50
2023-05-19T11:27:31.726Z,27.25
2023-05-19T11:30:13.967Z,27.16
2023-05-19T11:32:44.479Z,27.29
2023-05-19T11:35:23.717Z,27.38
2023-05-19T11:40:49.839Z,26.93
2023-05-19T11:43:18.387Z,26.80
2023-05-19T11:45:46.976Z,26.71
2023-05-19T11:48:16.134Z,26.81
2023-05-19T11:50:44.293Z,27.00
2023-05-19T11:53:17.093Z,27.42
2023-05-19T11:55:49.640Z,27.91
2023-05-19T11:58:17.599Z,27.86
2023-05-19T12:00:49.809Z,27.65
2023-05-19T12:03:28.847Z,27.78
2023-05-19T12:05:57.231Z,27.59
2023-05-19T12:08:25.629Z,27.31
2023-05-19T12:10:53.644Z,27.17
2023-05-19T12:13:23.097Z,27.10
2023-05-19T12:15:53.378Z,27.56
2023-05-19T12:18:30.812Z,28.38
2023-05-19T12:20:59.349Z,28.54
2023-05-19T12:23:27.370Z,28.45
2023-05-19T12:25:56.811Z,28.20
2023-05-19T12:28:24.147Z,27.68
2023-05-19T12:30:58.590Z,27.01
2023-05-19T12:33:26.865Z,26.49
2023-05-19T12:35:55.570Z,26.01
2023-05-19T12:38:23.099Z,25.74
2023-05-19T12:40:51.378Z,25.51
2023-05-19T12:43:23.411Z,25.32
2023-05-19T12:45:54.192Z,25.09
2023-05-19T12:48:24.607Z,24.99
2023-05-19T12:50:56.010Z,24.92
2023-05-19T12:53:27.719Z,24.78
2023-05-19T12:55:56.558Z,24.82
2023-05-19T12:58:24.299Z,24.79
2023-05-19T13:00:56.410Z,24.80
2023-05-19T13:03:23.719Z,24.93
2023-05-19T13:05:54.124Z,25.05
2023-05-19T13:08:24.205Z,25.21
2023-05-19T13:10:52.288Z,25.31
2023-05-19T13:13:21.215Z,25.30
2023-05-19T13:15:49.553Z,25.33
2023-05-19T13:18:17.484Z,25.30
2023-05-19T13:20:46.603Z,25.37
2023-05-19T13:23:14.671Z,25.55
2023-05-19T13:25:46.934Z,25.77
2023-05-19T13:28:29.784Z,25.94
2023-05-19T13:31:12.008Z,26.15
2023-05-19T13:33:40.928Z,26.39
2023-05-19T13:36:08.345Z,26.59
2023-05-19T13:38:35.887Z,26.51
2023-05-19T13:41:07.232Z,26.51
2023-05-19T13:43:41.103Z,26.43
2023-05-19T13:46:08.645Z,26.53
2023-05-19T13:48:36.641Z,26.55
2023-05-19T13:51:03.949Z,26.54
2023-05-19T13:53:33.062Z,26.55
2023-05-19T13:56:01.739Z,26.59
2023-05-19T13:58:30.710Z,26.68
2023-05-19T14:01:03.321Z,26.82
2023-05-19T14:03:39.869Z,26.95
2023-05-19T14:06:16.076Z,26.99
2023-05-19T14:08:44.846Z,27.17
2023-05-19T14:11:24.928Z,27.26
2023-05-19T14:13:53.068Z,27.13
2023-05-19T14:16:22.220Z,26.85
2023-05-19T14:18:52.917Z,26.78
2023-05-19T14:21:20.268Z,26.78
2023-05-19T14:23:48.049Z,26.54
2023-05-19T14:26:16.330Z,26.33
2023-05-19T14:28:44.026Z,26.28
2023-05-19T14:31:14.914Z,26.31
2023-05-19T14:33:44.270Z,26.40
2023-05-19T14:36:11.975Z,26.48
2023-05-19T14:38:39.694Z,26.51
2023-05-19T14:41:07.510Z,26.54
2023-05-19T14:43:35.804Z,26.60
2023-05-19T14:46:03.591Z,26.71
2023-05-19T14:48:31.234Z,26.68
2023-05-19T14:50:58.485Z,26.60
2023-05-19T14:56:11.729Z,26.53
2023-05-19T14:58:39.270Z,26.60
2023-05-19T15:01:06.430Z,26.65
2023-05-19T15:03:33.935Z,26.73
2023-05-19T15:06:01.520Z,26.67
2023-05-19T15:08:29.158Z,26.57
2023-05-19T15:11:17.473Z,26.43
2023-05-19T15:13:45.971Z,26.43
2023-05-19T15:16:18.051Z,26.44
2023-05-19T15:18:49.735Z,26.46
2023-05-19T15:21:18.291Z,26.41
2023-05-19T15:24:22.486Z,26.33
2023-05-19T15:26:52.001Z,26.29
2023-05-19T15:29:20.831Z,26.25
2023-05-19T15:31:52.085Z,26.22
2023-05-19T15:34:21.042Z,26.19
2023-05-19T15:36:48.377Z,26.12
2023-05-19T15:39:16.308Z,26.06
2023-05-19T15:47:09.741Z,25.95
2023-05-19T15:49:39.665Z,25.91
2023-05-19T15:52:11.254Z,25.86
2023-05-19T15:54:45.420Z,25.78
2023-05-19T15:57:13.686Z,25.74
2023-05-19T15:59:41.174Z,25.72
2023-05-19T16:02:08.770Z,25.72
2023-05-19T16:04:37.879Z,25.72
2023-05-19T16:07:05.223Z,25.74
2023-05-19T16:09:32.701Z,25.73
2023-05-19T16:11:59.998Z,25.73
2023-05-19T16:14:31.197Z,25.73
2023-05-19T16:16:58.557Z,25.73
2023-05-19T16:19:26.925Z,25.73
2023-05-19T16:21:54.144Z,25.71
2023-05-19T16:24:25.452Z,25.69
2023-05-19T16:26:53.953Z,25.67
2023-05-19T16:29:21.778Z,25.68
2023-05-19T16:31:49.161Z,25.68
2023-05-19T16:34:16.750Z,25.67
2023-05-19T16:36:44.202Z,25.61
2023-05-19T16:39:11.984Z,25.53
2023-05-19T16:41:39.089Z,25.46
2023-05-19T16:44:06.486Z,25.42
2023-05-19T16:46:34.299Z,25.38
2023-05-19T16:49:01.581Z,25.36
2023-05-19T16:51:28.787Z,25.31
2023-05-19T16:54:01.459Z,25.28
2023-05-19T16:56:33.394Z,25.24
2023-05-19T16:59:01.149Z,25.20
2023-05-19T17:01:28.300Z,25.17
2023-05-19T17:03:56.088Z,25.12
2023-05-19T17:06:23.238Z,25.08
2023-05-19T17:08:51.027Z,25.02
2023-05-19T17:11:18.743Z,24.93
2023-05-19T17:13:46.889Z,24.79
2023-05-19T17:16:14.121Z,24.62
2023-05-19T17:18:44.936Z,24.40
2023-05-19T17:21:12.227Z,24.13
2023-05-19T17:23:39.692Z,23.80
2023-05-19T17:26:06.847Z,23.55
2023-05-19T17:28:34.787Z,23.35
2023-05-19T17:31:09.073Z,23.15
2023-05-19T17:33:40.139Z,22.90
2023-05-19T17:36:08.216Z,22.76
2023-05-19T17:38:40.340Z,22.61
2023-05-19T17:41:10.115Z,22.51
2023-05-19T17:43:38.416Z,22.41
2023-05-19T17:46:06.708Z,22.26
2023-05-19T17:48:34.807Z,22.15
2023-05-19T17:53:40.718Z,21.90
2023-05-19T17:56:11.291Z,21.90
2023-05-19T17:58:39.623Z,21.84
2023-05-19T18:01:07.133Z,21.80
2023-05-19T18:03:35.430Z,21.78
2023-05-19T18:06:03.064Z,21.73
2023-05-19T18:08:31.608Z,21.64
2023-05-19T18:11:08.160Z,21.56
2023-05-19T18:13:40.040Z,21.51
2023-05-19T18:16:07.429Z,21.42
2023-05-19T18:18:37.546Z,21.37
2023-05-19T18:21:04.778Z,21.36
2023-05-19T18:23:36.547Z,21.32
2023-05-19T18:26:03.965Z,21.28
2023-05-19T18:28:31.837Z,21.26
2023-05-19T18:31:04.772Z,21.19
2023-05-19T18:33:33.384Z,21.15
2023-05-19T18:36:01.641Z,21.11
2023-05-19T18:38:29.213Z,21.08
2023-05-19T18:40:57.591Z,21.05
2023-05-19T18:43:30.328Z,21.02
2023-05-19T18:46:00.512Z,21.00
2023-05-19T18:48:28.262Z,21.00
2023-05-19T18:50:55.887Z,21.01
2023-05-19T18:53:23.435Z,21.05
2023-05-19T18:55:50.734Z,21.13
2023-05-19T18:58:18.826Z,21.22
2023-05-19T19:00:46.066Z,21.34
2023-05-19T19:03:14.453Z,21.40
2023-05-19T19:05:42.168Z,21.43
2023-05-19T19:08:09.853Z,21.46
2023-05-19T19:10:40.543Z,21.43
2023-05-19T19:13:08.170Z,21.46
2023-05-19T19:15:35.334Z,21.42
2023-05-19T19:18:02.900Z,21.32
2023-05-19T19:20:31.937Z,21.25
2023-05-19T19:23:02.275Z,21.07
2023-05-19T19:25:29.447Z,20.94
2023-05-19T19:27:58.048Z,20.81
2023-05-19T19:30:28.564Z,20.66
2023-05-19T19:32:57.285Z,20.57
2023-05-19T19:35:26.749Z,20.51
2023-05-19T19:38:00.187Z,20.50
2023-05-19T19:40:34.565Z,20.43
2023-05-19T19:43:07.696Z,20.40
2023-05-19T19:48:38.081Z,20.27
2023-05-19T19:51:07.829Z,20.23
2023-05-19T19:53:46.177Z,20.19
2023-05-19T19:56:38.174Z,20.13
2023-05-19T19:59:05.265Z,20.10
2023-05-19T20:01:33.963Z,20.03
2023-05-19T20:04:09.478Z,20.00
2023-05-19T20:06:38.859Z,19.90
2023-05-19T20:09:07.939Z,19.86
2023-05-19T20:11:36.124Z,19.79
2023-05-19T20:14:03.138Z,19.67
2023-05-19T20:16:30.756Z,19.64
2023-05-19T20:18:58.914Z,19.63
2023-05-19T20:21:26.342Z,19.62
2023-05-19T20:23:53.886Z,19.58
2023-05-19T20:26:22.561Z,19.55
2023-05-19T20:28:49.618Z,19.47
2023-05-19T20:31:17.056Z,19.45
2023-05-19T20:33:44.318Z,19.39
2023-05-19T20:36:11.771Z,19.44
2023-05-19T20:38:41.308Z,19.52
2023-05-19T20:41:09.051Z,19.63
2023-05-19T20:43:36.462Z,19.79
2023-05-19T20:46:04.153Z,19.84
2023-05-19T20:48:34.375Z,19.87
2023-05-19T20:51:03.085Z,19.87
2023-05-19T20:53:33.270Z,19.87
2023-05-19T20:56:00.935Z,19.87
2023-05-19T20:58:30.439Z,19.84
2023-05-19T21:01:02.903Z,19.80
2023-05-19T21:03:30.739Z,19.78
2023-05-19T21:05:58.152Z,19.76
2023-05-19T21:08:26.420Z,19.76
2023-05-19T21:10:54.298Z,19.72
2023-05-19T21:13:25.456Z,19.67
2023-05-19T21:15:52.990Z,19.61
2023-05-19T21:18:20.108Z,19.58
2023-05-19T21:20:47.658Z,19.55
2023-05-19T21:23:14.726Z,19.49
2023-05-19T21:25:44.574Z,19.46
2023-05-19T21:28:14.002Z,19.42
2023-05-19T21:30:41.811Z,19.38
2023-05-19T21:33:09.313Z,19.35
2023-05-19T21:35:37.000Z,19.35
2023-05-19T21:38:15.681Z,19.33
2023-05-19T21:41:15.167Z,19.34
2023-05-19T21:43:45.199Z,19.38
2023-05-19T21:46:13.133Z,19.40
2023-05-19T21:48:40.962Z,19.39
2023-05-19T21:51:11.122Z,19.37
2023-05-19T21:53:38.795Z,19.36
2023-05-19T21:56:06.396Z,19.32
2023-05-19T21:58:33.455Z,19.28
2023-05-19T22:01:00.834Z,19.25
2023-05-19T22:03:32.110Z,19.22
2023-05-19T22:05:59.632Z,19.22
2023-05-19T22:08:28.450Z,19.20
2023-05-19T22:10:57.441Z,19.23
2023-05-19T22:13:24.601Z,19.26
2023-05-19T22:15:52.043Z,19.32
2023-05-19T22:18:19.565Z,19.38
2023-05-19T22:20:46.962Z,19.47
2023-05-19T22:23:15.240Z,19.55
2023-05-19T22:25:42.601Z,19.62
2023-05-19T22:28:09.658Z,19.65
2023-05-19T22:30:41.136Z,19.68
2023-05-19T22:33:09.603Z,19.72
2023-05-19T22:35:37.623Z,19.74
2023-05-19T22:38:08.871Z,19.74
2023-05-19T22:40:39.722Z,19.72
2023-05-19T22:43:09.976Z,19.67
2023-05-19T22:45:37.789Z,19.62
2023-05-19T22:48:05.548Z,19.59
2023-05-19T22:50:35.536Z,19.55
2023-05-19T22:53:02.752Z,19.52
2023-05-19T22:55:30.071Z,19.50
2023-05-19T22:57:57.162Z,19.48
2023-05-19T23:00:24.585Z,19.45
2023-05-19T23:02:51.637Z,19.45
2023-05-19T23:05:19.589Z,19.45
2023-05-19T23:07:46.639Z,19.43
2023-05-19T23:10:13.967Z,19.42
2023-05-19T23:12:41.382Z,19.41
2023-05-19T23:15:09.787Z,19.40
2023-05-19T23:17:37.489Z,19.40
2023-05-19T23:20:05.957Z,19.39
2023-05-19T23:22:33.057Z,19.38
2023-05-19T23:25:02.006Z,19.36
2023-05-19T23:27:29.061Z,19.36
2023-05-19T23:29:56.455Z,19.35
2023-05-19T23:32:23.623Z,19.34
2023-05-19T23:34:51.215Z,19.34
2023-05-19T23:37:18.260Z,19.30
2023-05-19T23:39:46.318Z,19.32
2023-05-19T23:42:13.396Z,19.32
2023-05-19T23:44:40.846Z,19.33
2023-05-19T23:47:08.069Z,19.33
2023-05-19T23:49:35.900Z,19.33
2023-05-19T23:52:03.194Z,19.32
2023-05-19T23:54:31.182Z,19.31
2023-05-19T23:56:59.052Z,19.28
2023-05-19T23:59:26.820Z,19.27
